sensor_id;sensor_type;location;lat;lon;timestamp;P1;durP1;ratioP1;P2;durP2;ratioP2
13252;SDS011;6693;54.370;10.132;2023-11-21T00:00:20;9.75;;;3.67;;
13252;SDS011;6693;54.370;10.132;2023-11-21T00:01:23;7.35;;;3.30;;
13252;SDS011;6693;54.370;10.132;2023-11-21T00:02:24;9.68;;;3.63;;
13252;SDS011;6693;54.370;10.132;2023-11-21T00:03:24;7.35;;;3.00;;
13252;SDS011;6693;54.370;10.132;2023-11-21T00:04:28;7.65;;;3.42;;
13252;SDS011;6693;54.370;10.132;2023-11-21T00:05:28;10.32;;;3.83;;
13252;SDS011;6693;54.370;10.132;2023-11-21T00:06:32;7.80;;;3.35;;
13252;SDS011;6693;54.370;10.132;2023-11-21T00:07:32;7.47;;;3.53;;
13252;SDS011;6693;54.370;10.132;2023-11-21T00:08:35;10.07;;;4.07;;
13252;SDS011;6693;54.370;10.132;2023-11-21T00:09:36;10.43;;;4.07;;
13252;SDS011;6693;54.370;10.132;2023-11-21T00:10:39;9.48;;;4.32;;
13252;SDS011;6693;54.370;10.132;2023-11-21T00:11:40;9.77;;;4.25;;
13252;SDS011;6693;54.370;10.132;2023-11-21T00:12:40;10.73;;;4.30;;
13252;SDS011;6693;54.370;10.132;2023-11-21T00:13:46;11.60;;;4.72;;
13252;SDS011;6693;54.370;10.132;2023-11-21T00:14:47;11.20;;;4.50;;
13252;SDS011;6693;54.370;10.132;2023-11-21T00:15:51;9.25;;;4.20;;
13252;SDS011;6693;54.370;10.132;2023-11-21T00:16:51;10.30;;;4.32;;
13252;SDS011;6693;54.370;10.132;2023-11-21T00:17:54;10.20;;;4.18;;
13252;SDS011;6693;54.370;10.132;2023-11-21T00:18:55;8.68;;;3.45;;
13252;SDS011;6693;54.370;10.132;2023-11-21T00:19:58;9.70;;;4.50;;
13252;SDS011;6693;54.370;10.132;2023-11-21T00:20:59;10.63;;;4.15;;
13252;SDS011;6693;54.370;10.132;2023-11-21T00:22:03;9.90;;;4.28;;
13252;SDS011;6693;54.370;10.132;2023-11-21T00:23:04;9.07;;;3.95;;
13252;SDS011;6693;54.370;10.132;2023-11-21T00:24:07;9.40;;;3.75;;
13252;SDS011;6693;54.370;10.132;2023-11-21T00:25:08;9.73;;;4.30;;
13252;SDS011;6693;54.370;10.132;2023-11-21T00:26:15;9.73;;;4.60;;
13252;SDS011;6693;54.370;10.132;2023-11-21T00:27:15;10.55;;;4.75;;
13252;SDS011;6693;54.370;10.132;2023-11-21T00:28:19;11.25;;;4.85;;
13252;SDS011;6693;54.370;10.132;2023-11-21T00:29:22;13.93;;;5.03;;
13252;SDS011;6693;54.370;10.132;2023-11-21T00:30:25;11.13;;;4.93;;
13252;SDS011;6693;54.370;10.132;2023-11-21T00:31:26;9.20;;;4.22;;
13252;SDS011;6693;54.370;10.132;2023-11-21T00:32:30;11.38;;;5.03;;
13252;SDS011;6693;54.370;10.132;2023-11-21T00:33:31;11.52;;;4.68;;
13252;SDS011;6693;54.370;10.132;2023-11-21T00:34:34;10.73;;;4.57;;
13252;SDS011;6693;54.370;10.132;2023-11-21T00:35:35;9.32;;;4.40;;
13252;SDS011;6693;54.370;10.132;2023-11-21T00:36:38;10.60;;;4.47;;
13252;SDS011;6693;54.370;10.132;2023-11-21T00:37:39;11.52;;;4.63;;
13252;SDS011;6693;54.370;10.132;2023-11-21T00:38:42;10.38;;;4.82;;
13252;SDS011;6693;54.370;10.132;2023-11-21T00:39:43;11.88;;;4.53;;
13252;SDS011;6693;54.370;10.132;2023-11-21T00:40:43;10.70;;;5.05;;
13252;SDS011;6693;54.370;10.132;2023-11-21T00:41:47;11.07;;;5.15;;
13252;SDS011;6693;54.370;10.132;2023-11-21T00:42:48;10.57;;;5.10;;
13252;SDS011;6693;54.370;10.132;2023-11-21T00:43:51;10.23;;;4.38;;
13252;SDS011;6693;54.370;10.132;2023-11-21T00:44:54;12.38;;;5.20;;
13252;SDS011;6693;54.370;10.132;2023-11-21T00:45:58;12.35;;;5.55;;
13252;SDS011;6693;54.370;10.132;2023-11-21T00:46:58;12.18;;;5.05;;
13252;SDS011;6693;54.370;10.132;2023-11-21T00:48:03;11.65;;;5.30;;
13252;SDS011;6693;54.370;10.132;2023-11-21T00:50:08;11.73;;;4.72;;
13252;SDS011;6693;54.370;10.132;2023-11-21T00:51:09;12.63;;;5.07;;
13252;SDS011;6693;54.370;10.132;2023-11-21T00:52:12;12.57;;;5.57;;
13252;SDS011;6693;54.370;10.132;2023-11-21T00:53:13;10.75;;;4.75;;
13252;SDS011;6693;54.370;10.132;2023-11-21T00:54:17;11.52;;;4.88;;
13252;SDS011;6693;54.370;10.132;2023-11-21T00:55:18;12.32;;;5.55;;
13252;SDS011;6693;54.370;10.132;2023-11-21T00:56:21;11.38;;;5.40;;
13252;SDS011;6693;54.370;10.132;2023-11-21T00:57:22;12.75;;;5.63;;
13252;SDS011;6693;54.370;10.132;2023-11-21T00:58:25;14.30;;;5.60;;
13252;SDS011;6693;54.370;10.132;2023-11-21T00:59:25;12.23;;;5.80;;
13252;SDS011;6693;54.370;10.132;2023-11-21T01:00:28;13.82;;;5.90;;
13252;SDS011;6693;54.370;10.132;2023-11-21T01:01:32;12.98;;;4.97;;
13252;SDS011;6693;54.370;10.132;2023-11-21T01:02:32;11.98;;;5.00;;
13252;SDS011;6693;54.370;10.132;2023-11-21T01:03:33;11.45;;;5.30;;
13252;SDS011;6693;54.370;10.132;2023-11-21T01:04:36;12.18;;;4.82;;
13252;SDS011;6693;54.370;10.132;2023-11-21T01:05:37;10.70;;;3.97;;
13252;SDS011;6693;54.370;10.132;2023-11-21T01:06:40;12.10;;;5.68;;
13252;SDS011;6693;54.370;10.132;2023-11-21T01:07:41;12.18;;;5.40;;
13252;SDS011;6693;54.370;10.132;2023-11-21T01:08:44;14.45;;;5.25;;
13252;SDS011;6693;54.370;10.132;2023-11-21T01:09:45;12.95;;;5.45;;
13252;SDS011;6693;54.370;10.132;2023-11-21T01:10:48;10.63;;;5.13;;
13252;SDS011;6693;54.370;10.132;2023-11-21T01:11:49;11.40;;;5.40;;
13252;SDS011;6693;54.370;10.132;2023-11-21T01:12:52;12.45;;;5.72;;
13252;SDS011;6693;54.370;10.132;2023-11-21T01:13:53;11.23;;;5.47;;
13252;SDS011;6693;54.370;10.132;2023-11-21T01:14:56;9.43;;;4.18;;
13252;SDS011;6693;54.370;10.132;2023-11-21T01:16:00;10.88;;;4.30;;
13252;SDS011;6693;54.370;10.132;2023-11-21T01:17:04;10.57;;;4.80;;
13252;SDS011;6693;54.370;10.132;2023-11-21T01:18:05;10.23;;;5.00;;
13252;SDS011;6693;54.370;10.132;2023-11-21T01:19:08;10.95;;;4.97;;
13252;SDS011;6693;54.370;10.132;2023-11-21T01:20:10;12.75;;;4.43;;
13252;SDS011;6693;54.370;10.132;2023-11-21T01:21:13;11.80;;;5.35;;
13252;SDS011;6693;54.370;10.132;2023-11-21T01:22:14;11.80;;;5.03;;
13252;SDS011;6693;54.370;10.132;2023-11-21T01:24:22;11.82;;;5.10;;
13252;SDS011;6693;54.370;10.132;2023-11-21T01:25:25;10.50;;;4.97;;
13252;SDS011;6693;54.370;10.132;2023-11-21T01:26:26;10.63;;;4.90;;
13252;SDS011;6693;54.370;10.132;2023-11-21T01:27:29;11.90;;;5.68;;
13252;SDS011;6693;54.370;10.132;2023-11-21T01:28:30;12.23;;;5.65;;
13252;SDS011;6693;54.370;10.132;2023-11-21T01:29:33;12.63;;;5.63;;
13252;SDS011;6693;54.370;10.132;2023-11-21T01:30:35;13.02;;;6.40;;
13252;SDS011;6693;54.370;10.132;2023-11-21T01:31:41;13.00;;;5.75;;
13252;SDS011;6693;54.370;10.132;2023-11-21T01:32:44;10.13;;;4.22;;
13252;SDS011;6693;54.370;10.132;2023-11-21T01:33:45;12.43;;;5.45;;
13252;SDS011;6693;54.370;10.132;2023-11-21T01:34:50;12.35;;;5.15;;
13252;SDS011;6693;54.370;10.132;2023-11-21T01:35:50;11.75;;;5.43;;
13252;SDS011;6693;54.370;10.132;2023-11-21T01:36:54;12.48;;;5.30;;
13252;SDS011;6693;54.370;10.132;2023-11-21T01:37:55;12.20;;;5.45;;
13252;SDS011;6693;54.370;10.132;2023-11-21T01:38:58;11.93;;;5.38;;
13252;SDS011;6693;54.370;10.132;2023-11-21T01:39:59;10.85;;;4.95;;
13252;SDS011;6693;54.370;10.132;2023-11-21T01:41:01;13.32;;;4.65;;
13252;SDS011;6693;54.370;10.132;2023-11-21T01:42:04;11.80;;;4.75;;
13252;SDS011;6693;54.370;10.132;2023-11-21T01:43:06;11.82;;;5.25;;
13252;SDS011;6693;54.370;10.132;2023-11-21T01:44:08;11.85;;;4.88;;
13252;SDS011;6693;54.370;10.132;2023-11-21T01:45:13;13.50;;;5.75;;
13252;SDS011;6693;54.370;10.132;2023-11-21T01:46:14;12.43;;;5.70;;
13252;SDS011;6693;54.370;10.132;2023-11-21T01:47:20;11.23;;;5.43;;
13252;SDS011;6693;54.370;10.132;2023-11-21T01:48:21;10.93;;;4.85;;
13252;SDS011;6693;54.370;10.132;2023-11-21T01:49:24;9.75;;;4.40;;
13252;SDS011;6693;54.370;10.132;2023-11-21T01:50:25;15.60;;;5.47;;
13252;SDS011;6693;54.370;10.132;2023-11-21T01:51:28;12.07;;;5.28;;
13252;SDS011;6693;54.370;10.132;2023-11-21T01:52:29;11.55;;;5.30;;
13252;SDS011;6693;54.370;10.132;2023-11-21T01:53:29;11.98;;;5.13;;
13252;SDS011;6693;54.370;10.132;2023-11-21T01:54:33;11.30;;;4.55;;
13252;SDS011;6693;54.370;10.132;2023-11-21T01:55:33;11.65;;;4.38;;
13252;SDS011;6693;54.370;10.132;2023-11-21T01:56:38;10.43;;;4.70;;
13252;SDS011;6693;54.370;10.132;2023-11-21T01:57:39;11.77;;;4.60;;
13252;SDS011;6693;54.370;10.132;2023-11-21T01:58:42;9.07;;;3.72;;
13252;SDS011;6693;54.370;10.132;2023-11-21T01:59:43;9.93;;;3.92;;
13252;SDS011;6693;54.370;10.132;2023-11-21T02:00:47;12.07;;;4.82;;
13252;SDS011;6693;54.370;10.132;2023-11-21T02:01:50;10.40;;;4.47;;
13252;SDS011;6693;54.370;10.132;2023-11-21T02:02:58;9.98;;;4.30;;
13252;SDS011;6693;54.370;10.132;2023-11-21T02:03:59;10.85;;;4.07;;
13252;SDS011;6693;54.370;10.132;2023-11-21T02:05:03;9.23;;;3.50;;
13252;SDS011;6693;54.370;10.132;2023-11-21T02:06:04;9.95;;;4.32;;
13252;SDS011;6693;54.370;10.132;2023-11-21T02:07:08;9.15;;;3.78;;
13252;SDS011;6693;54.370;10.132;2023-11-21T02:08:10;9.50;;;4.00;;
13252;SDS011;6693;54.370;10.132;2023-11-21T02:09:14;9.02;;;4.03;;
13252;SDS011;6693;54.370;10.132;2023-11-21T02:10:15;8.90;;;3.42;;
13252;SDS011;6693;54.370;10.132;2023-11-21T02:11:22;8.70;;;4.05;;
13252;SDS011;6693;54.370;10.132;2023-11-21T02:12:24;9.25;;;3.65;;
13252;SDS011;6693;54.370;10.132;2023-11-21T02:13:27;8.80;;;3.72;;
13252;SDS011;6693;54.370;10.132;2023-11-21T02:14:28;8.90;;;3.80;;
13252;SDS011;6693;54.370;10.132;2023-11-21T02:15:31;8.68;;;3.60;;
13252;SDS011;6693;54.370;10.132;2023-11-21T02:16:32;8.15;;;4.07;;
13252;SDS011;6693;54.370;10.132;2023-11-21T02:17:35;9.05;;;4.13;;
13252;SDS011;6693;54.370;10.132;2023-11-21T02:18:39;9.52;;;4.20;;
13252;SDS011;6693;54.370;10.132;2023-11-21T02:19:42;10.20;;;3.70;;
13252;SDS011;6693;54.370;10.132;2023-11-21T02:20:43;9.23;;;3.75;;
13252;SDS011;6693;54.370;10.132;2023-11-21T02:21:47;9.93;;;4.20;;
13252;SDS011;6693;54.370;10.132;2023-11-21T02:22:52;8.52;;;4.03;;
13252;SDS011;6693;54.370;10.132;2023-11-21T02:23:57;8.82;;;3.95;;
13252;SDS011;6693;54.370;10.132;2023-11-21T02:25:01;10.68;;;4.00;;
13252;SDS011;6693;54.370;10.132;2023-11-21T02:26:02;10.85;;;4.20;;
13252;SDS011;6693;54.370;10.132;2023-11-21T02:27:05;11.02;;;4.40;;
13252;SDS011;6693;54.370;10.132;2023-11-21T02:28:06;9.10;;;4.10;;
13252;SDS011;6693;54.370;10.132;2023-11-21T02:29:07;10.20;;;4.38;;
13252;SDS011;6693;54.370;10.132;2023-11-21T02:30:12;10.25;;;4.63;;
13252;SDS011;6693;54.370;10.132;2023-11-21T02:31:14;8.98;;;4.45;;
13252;SDS011;6693;54.370;10.132;2023-11-21T02:32:19;12.27;;;4.82;;
13252;SDS011;6693;54.370;10.132;2023-11-21T02:33:22;10.65;;;4.30;;
13252;SDS011;6693;54.370;10.132;2023-11-21T02:34:26;10.52;;;4.60;;
13252;SDS011;6693;54.370;10.132;2023-11-21T02:35:26;10.90;;;4.47;;
13252;SDS011;6693;54.370;10.132;2023-11-21T02:36:31;10.20;;;4.00;;
13252;SDS011;6693;54.370;10.132;2023-11-21T02:37:32;9.90;;;4.47;;
13252;SDS011;6693;54.370;10.132;2023-11-21T02:38:35;11.18;;;4.53;;
13252;SDS011;6693;54.370;10.132;2023-11-21T02:39:38;11.13;;;4.30;;
13252;SDS011;6693;54.370;10.132;2023-11-21T02:40:39;9.52;;;4.00;;
13252;SDS011;6693;54.370;10.132;2023-11-21T02:41:42;8.85;;;4.00;;
13252;SDS011;6693;54.370;10.132;2023-11-21T02:42:43;10.25;;;4.25;;
13252;SDS011;6693;54.370;10.132;2023-11-21T02:43:44;10.15;;;4.60;;
13252;SDS011;6693;54.370;10.132;2023-11-21T02:44:47;9.60;;;4.38;;
13252;SDS011;6693;54.370;10.132;2023-11-21T02:45:47;10.75;;;4.68;;
13252;SDS011;6693;54.370;10.132;2023-11-21T02:46:51;10.00;;;3.80;;
13252;SDS011;6693;54.370;10.132;2023-11-21T02:47:51;10.82;;;4.88;;
13252;SDS011;6693;54.370;10.132;2023-11-21T02:48:57;10.98;;;4.80;;
13252;SDS011;6693;54.370;10.132;2023-11-21T02:49:58;11.20;;;5.03;;
13252;SDS011;6693;54.370;10.132;2023-11-21T02:51:01;11.55;;;4.78;;
13252;SDS011;6693;54.370;10.132;2023-11-21T02:52:02;9.82;;;4.60;;
13252;SDS011;6693;54.370;10.132;2023-11-21T02:53:06;8.85;;;3.67;;
13252;SDS011;6693;54.370;10.132;2023-11-21T02:54:09;8.77;;;4.20;;
13252;SDS011;6693;54.370;10.132;2023-11-21T02:55:12;9.10;;;4.03;;
13252;SDS011;6693;54.370;10.132;2023-11-21T02:56:13;9.20;;;4.00;;
13252;SDS011;6693;54.370;10.132;2023-11-21T02:57:17;10.63;;;4.50;;
13252;SDS011;6693;54.370;10.132;2023-11-21T02:58:18;9.60;;;3.92;;
13252;SDS011;6693;54.370;10.132;2023-11-21T02:59:21;7.90;;;3.78;;
13252;SDS011;6693;54.370;10.132;2023-11-21T03:00:22;9.80;;;3.92;;
13252;SDS011;6693;54.370;10.132;2023-11-21T03:01:24;8.65;;;3.90;;
13252;SDS011;6693;54.370;10.132;2023-11-21T03:02:27;10.55;;;4.13;;
13252;SDS011;6693;54.370;10.132;2023-11-21T03:03:28;9.95;;;4.18;;
13252;SDS011;6693;54.370;10.132;2023-11-21T03:04:31;9.27;;;4.38;;
13252;SDS011;6693;54.370;10.132;2023-11-21T03:05:32;9.45;;;3.83;;
13252;SDS011;6693;54.370;10.132;2023-11-21T03:06:37;10.45;;;4.05;;
13252;SDS011;6693;54.370;10.132;2023-11-21T03:07:37;9.45;;;3.67;;
13252;SDS011;6693;54.370;10.132;2023-11-21T03:08:38;10.52;;;3.70;;
13252;SDS011;6693;54.370;10.132;2023-11-21T03:09:44;9.45;;;4.03;;
13252;SDS011;6693;54.370;10.132;2023-11-21T03:10:47;7.97;;;3.30;;
13252;SDS011;6693;54.370;10.132;2023-11-21T03:11:51;8.57;;;3.13;;
13252;SDS011;6693;54.370;10.132;2023-11-21T03:12:51;7.53;;;3.03;;
13252;SDS011;6693;54.370;10.132;2023-11-21T03:13:52;6.50;;;3.05;;
13252;SDS011;6693;54.370;10.132;2023-11-21T03:14:55;7.38;;;3.00;;
13252;SDS011;6693;54.370;10.132;2023-11-21T03:15:56;7.93;;;2.95;;
13252;SDS011;6693;54.370;10.132;2023-11-21T03:16:59;6.43;;;2.85;;
13252;SDS011;6693;54.370;10.132;2023-11-21T03:18:00;6.38;;;2.58;;
13252;SDS011;6693;54.370;10.132;2023-11-21T03:19:04;8.35;;;2.80;;
13252;SDS011;6693;54.370;10.132;2023-11-21T03:20:06;7.13;;;2.53;;
13252;SDS011;6693;54.370;10.132;2023-11-21T03:21:11;6.90;;;2.33;;
13252;SDS011;6693;54.370;10.132;2023-11-21T03:22:12;6.35;;;2.25;;
13252;SDS011;6693;54.370;10.132;2023-11-21T03:23:15;7.75;;;2.53;;
13252;SDS011;6693;54.370;10.132;2023-11-21T03:24:16;7.88;;;2.60;;
13252;SDS011;6693;54.370;10.132;2023-11-21T03:25:22;6.22;;;2.22;;
13252;SDS011;6693;54.370;10.132;2023-11-21T03:26:24;6.65;;;2.30;;
13252;SDS011;6693;54.370;10.132;2023-11-21T03:27:27;7.68;;;2.42;;
13252;SDS011;6693;54.370;10.132;2023-11-21T03:28:27;7.18;;;1.90;;
13252;SDS011;6693;54.370;10.132;2023-11-21T03:29:30;12.65;;;2.22;;
13252;SDS011;6693;54.370;10.132;2023-11-21T03:30:31;8.13;;;2.35;;
13252;SDS011;6693;54.370;10.132;2023-11-21T03:31:34;6.30;;;2.70;;
13252;SDS011;6693;54.370;10.132;2023-11-21T03:32:35;6.47;;;2.35;;
13252;SDS011;6693;54.370;10.132;2023-11-21T03:33:36;6.07;;;2.00;;
13252;SDS011;6693;54.370;10.132;2023-11-21T03:34:52;4.38;;;1.77;;
13252;SDS011;6693;54.370;10.132;2023-11-21T03:35:54;5.80;;;1.88;;
13252;SDS011;6693;54.370;10.132;2023-11-21T03:36:57;5.90;;;2.20;;
13252;SDS011;6693;54.370;10.132;2023-11-21T03:37:58;6.97;;;2.20;;
13252;SDS011;6693;54.370;10.132;2023-11-21T03:39:01;5.13;;;2.30;;
13252;SDS011;6693;54.370;10.132;2023-11-21T03:40:02;6.07;;;2.03;;
13252;SDS011;6693;54.370;10.132;2023-11-21T03:41:11;5.85;;;2.08;;
13252;SDS011;6693;54.370;10.132;2023-11-21T03:42:11;5.20;;;1.83;;
13252;SDS011;6693;54.370;10.132;2023-11-21T03:43:14;8.10;;;2.45;;
13252;SDS011;6693;54.370;10.132;2023-11-21T03:44:15;9.02;;;2.20;;
13252;SDS011;6693;54.370;10.132;2023-11-21T03:45:18;6.10;;;2.10;;
13252;SDS011;6693;54.370;10.132;2023-11-21T03:46:19;6.00;;;2.25;;
13252;SDS011;6693;54.370;10.132;2023-11-21T03:47:22;5.30;;;1.90;;
13252;SDS011;6693;54.370;10.132;2023-11-21T03:48:22;6.03;;;2.10;;
13252;SDS011;6693;54.370;10.132;2023-11-21T03:49:26;6.32;;;2.08;;
13252;SDS011;6693;54.370;10.132;2023-11-21T03:50:26;5.40;;;1.90;;
13252;SDS011;6693;54.370;10.132;2023-11-21T03:51:29;6.35;;;1.85;;
13252;SDS011;6693;54.370;10.132;2023-11-21T03:52:30;5.40;;;1.90;;
13252;SDS011;6693;54.370;10.132;2023-11-21T03:53:33;6.72;;;2.10;;
13252;SDS011;6693;54.370;10.132;2023-11-21T03:54:35;6.03;;;1.77;;
13252;SDS011;6693;54.370;10.132;2023-11-21T03:55:36;6.15;;;2.00;;
13252;SDS011;6693;54.370;10.132;2023-11-21T03:56:42;7.15;;;2.15;;
13252;SDS011;6693;54.370;10.132;2023-11-21T03:57:42;5.72;;;1.92;;
13252;SDS011;6693;54.370;10.132;2023-11-21T03:58:45;5.13;;;1.80;;
13252;SDS011;6693;54.370;10.132;2023-11-21T03:59:46;7.97;;;2.05;;
13252;SDS011;6693;54.370;10.132;2023-11-21T04:00:49;6.50;;;1.95;;
13252;SDS011;6693;54.370;10.132;2023-11-21T04:01:50;6.07;;;1.90;;
13252;SDS011;6693;54.370;10.132;2023-11-21T04:02:51;6.25;;;1.80;;
13252;SDS011;6693;54.370;10.132;2023-11-21T04:03:54;6.05;;;1.88;;
13252;SDS011;6693;54.370;10.132;2023-11-21T04:04:54;6.68;;;1.98;;
13252;SDS011;6693;54.370;10.132;2023-11-21T04:05:58;5.63;;;2.30;;
13252;SDS011;6693;54.370;10.132;2023-11-21T04:06:58;5.63;;;1.77;;
13252;SDS011;6693;54.370;10.132;2023-11-21T04:08:01;5.78;;;1.80;;
13252;SDS011;6693;54.370;10.132;2023-11-21T04:09:02;7.25;;;1.90;;
13252;SDS011;6693;54.370;10.132;2023-11-21T04:10:06;5.35;;;1.92;;
13252;SDS011;6693;54.370;10.132;2023-11-21T04:11:08;5.25;;;1.48;;
13252;SDS011;6693;54.370;10.132;2023-11-21T04:12:14;6.05;;;1.60;;
13252;SDS011;6693;54.370;10.132;2023-11-21T04:13:15;5.78;;;1.73;;
13252;SDS011;6693;54.370;10.132;2023-11-21T04:14:15;7.95;;;2.05;;
13252;SDS011;6693;54.370;10.132;2023-11-21T04:15:18;6.63;;;1.83;;
13252;SDS011;6693;54.370;10.132;2023-11-21T04:16:19;7.13;;;1.83;;
13252;SDS011;6693;54.370;10.132;2023-11-21T04:17:22;5.90;;;1.98;;
13252;SDS011;6693;54.370;10.132;2023-11-21T04:18:23;4.72;;;1.67;;
13252;SDS011;6693;54.370;10.132;2023-11-21T04:19:26;5.75;;;1.65;;
13252;SDS011;6693;54.370;10.132;2023-11-21T04:20:26;5.38;;;1.67;;
13252;SDS011;6693;54.370;10.132;2023-11-21T04:21:30;6.43;;;1.75;;
13252;SDS011;6693;54.370;10.132;2023-11-21T04:22:30;5.75;;;1.90;;
13252;SDS011;6693;54.370;10.132;2023-11-21T04:23:35;4.78;;;1.75;;
13252;SDS011;6693;54.370;10.132;2023-11-21T04:24:36;6.07;;;2.00;;
13252;SDS011;6693;54.370;10.132;2023-11-21T04:25:39;5.68;;;1.60;;
13252;SDS011;6693;54.370;10.132;2023-11-21T04:26:40;5.10;;;1.50;;
13252;SDS011;6693;54.370;10.132;2023-11-21T04:27:45;5.00;;;1.77;;
13252;SDS011;6693;54.370;10.132;2023-11-21T04:28:46;5.25;;;1.58;;
13252;SDS011;6693;54.370;10.132;2023-11-21T04:29:50;5.45;;;1.60;;
13252;SDS011;6693;54.370;10.132;2023-11-21T04:30:50;5.43;;;1.52;;
13252;SDS011;6693;54.370;10.132;2023-11-21T04:31:54;4.63;;;1.45;;
13252;SDS011;6693;54.370;10.132;2023-11-21T04:32:54;5.00;;;1.63;;
13252;SDS011;6693;54.370;10.132;2023-11-21T04:33:57;7.22;;;1.80;;
13252;SDS011;6693;54.370;10.132;2023-11-21T04:34:58;6.85;;;1.70;;
13252;SDS011;6693;54.370;10.132;2023-11-21T04:36:01;7.25;;;1.70;;
13252;SDS011;6693;54.370;10.132;2023-11-21T04:37:02;5.68;;;1.90;;
13252;SDS011;6693;54.370;10.132;2023-11-21T04:38:06;5.72;;;2.00;;
13252;SDS011;6693;54.370;10.132;2023-11-21T04:39:07;4.65;;;1.55;;
13252;SDS011;6693;54.370;10.132;2023-11-21T04:40:11;6.45;;;1.85;;
13252;SDS011;6693;54.370;10.132;2023-11-21T04:41:12;6.60;;;1.85;;
13252;SDS011;6693;54.370;10.132;2023-11-21T04:42:15;5.47;;;1.70;;
13252;SDS011;6693;54.370;10.132;2023-11-21T04:43:18;6.10;;;1.55;;
13252;SDS011;6693;54.370;10.132;2023-11-21T04:44:21;6.10;;;1.80;;
13252;SDS011;6693;54.370;10.132;2023-11-21T04:45:22;5.30;;;2.05;;
13252;SDS011;6693;54.370;10.132;2023-11-21T04:46:25;5.22;;;1.75;;
13252;SDS011;6693;54.370;10.132;2023-11-21T04:47:26;5.10;;;1.60;;
13252;SDS011;6693;54.370;10.132;2023-11-21T04:48:29;4.95;;;1.75;;
13252;SDS011;6693;54.370;10.132;2023-11-21T04:49:30;5.68;;;1.73;;
13252;SDS011;6693;54.370;10.132;2023-11-21T04:50:33;5.05;;;1.83;;
13252;SDS011;6693;54.370;10.132;2023-11-21T04:51:34;5.40;;;1.80;;
13252;SDS011;6693;54.370;10.132;2023-11-21T04:52:37;6.40;;;1.85;;
13252;SDS011;6693;54.370;10.132;2023-11-21T04:53:38;5.88;;;1.77;;
13252;SDS011;6693;54.370;10.132;2023-11-21T04:54:41;4.85;;;1.63;;
13252;SDS011;6693;54.370;10.132;2023-11-21T04:55:43;5.88;;;1.73;;
13252;SDS011;6693;54.370;10.132;2023-11-21T04:56:46;5.80;;;1.83;;
13252;SDS011;6693;54.370;10.132;2023-11-21T04:57:47;6.00;;;1.80;;
13252;SDS011;6693;54.370;10.132;2023-11-21T04:58:53;6.00;;;2.10;;
13252;SDS011;6693;54.370;10.132;2023-11-21T04:59:54;5.53;;;1.77;;
13252;SDS011;6693;54.370;10.132;2023-11-21T05:00:55;4.30;;;1.63;;
13252;SDS011;6693;54.370;10.132;2023-11-21T05:01:58;6.40;;;1.85;;
13252;SDS011;6693;54.370;10.132;2023-11-21T05:03:00;6.03;;;1.70;;
13252;SDS011;6693;54.370;10.132;2023-11-21T05:04:01;6.60;;;2.05;;
13252;SDS011;6693;54.370;10.132;2023-11-21T05:05:06;5.55;;;1.55;;
13252;SDS011;6693;54.370;10.132;2023-11-21T05:06:09;6.30;;;2.00;;
13252;SDS011;6693;54.370;10.132;2023-11-21T05:07:12;6.07;;;2.15;;
13252;SDS011;6693;54.370;10.132;2023-11-21T05:08:13;5.82;;;1.98;;
13252;SDS011;6693;54.370;10.132;2023-11-21T05:09:16;5.57;;;1.65;;
13252;SDS011;6693;54.370;10.132;2023-11-21T05:10:17;6.60;;;1.98;;
13252;SDS011;6693;54.370;10.132;2023-11-21T05:11:23;7.75;;;1.75;;
13252;SDS011;6693;54.370;10.132;2023-11-21T05:12:24;5.60;;;1.50;;
13252;SDS011;6693;54.370;10.132;2023-11-21T05:13:27;5.15;;;2.03;;
13252;SDS011;6693;54.370;10.132;2023-11-21T05:14:31;4.93;;;1.60;;
13252;SDS011;6693;54.370;10.132;2023-11-21T05:15:34;5.63;;;1.63;;
13252;SDS011;6693;54.370;10.132;2023-11-21T05:16:34;4.95;;;1.67;;
13252;SDS011;6693;54.370;10.132;2023-11-21T05:17:38;6.93;;;1.70;;
13252;SDS011;6693;54.370;10.132;2023-11-21T05:18:39;5.07;;;1.73;;
13252;SDS011;6693;54.370;10.132;2023-11-21T05:19:42;6.25;;;1.80;;
13252;SDS011;6693;54.370;10.132;2023-11-21T05:20:45;5.60;;;1.83;;
13252;SDS011;6693;54.370;10.132;2023-11-21T05:21:49;5.40;;;1.88;;
13252;SDS011;6693;54.370;10.132;2023-11-21T05:22:49;6.22;;;1.83;;
13252;SDS011;6693;54.370;10.132;2023-11-21T05:23:53;5.00;;;1.70;;
13252;SDS011;6693;54.370;10.132;2023-11-21T05:24:53;5.95;;;1.63;;
13252;SDS011;6693;54.370;10.132;2023-11-21T05:25:54;6.65;;;1.75;;
13252;SDS011;6693;54.370;10.132;2023-11-21T05:26:57;4.75;;;1.73;;
13252;SDS011;6693;54.370;10.132;2023-11-21T05:27:58;5.25;;;1.75;;
13252;SDS011;6693;54.370;10.132;2023-11-21T05:29:02;5.40;;;1.70;;
13252;SDS011;6693;54.370;10.132;2023-11-21T05:30:06;5.47;;;1.75;;
13252;SDS011;6693;54.370;10.132;2023-11-21T05:31:12;6.75;;;1.60;;
13252;SDS011;6693;54.370;10.132;2023-11-21T05:32:12;5.78;;;1.80;;
13252;SDS011;6693;54.370;10.132;2023-11-21T05:33:17;5.85;;;1.92;;
13252;SDS011;6693;54.370;10.132;2023-11-21T05:34:18;4.88;;;1.80;;
13252;SDS011;6693;54.370;10.132;2023-11-21T05:35:24;6.55;;;1.75;;
13252;SDS011;6693;54.370;10.132;2023-11-21T05:36:24;6.13;;;2.00;;
13252;SDS011;6693;54.370;10.132;2023-11-21T05:37:27;5.22;;;1.75;;
13252;SDS011;6693;54.370;10.132;2023-11-21T05:38:28;5.65;;;1.70;;
13252;SDS011;6693;54.370;10.132;2023-11-21T05:39:32;5.75;;;1.85;;
13252;SDS011;6693;54.370;10.132;2023-11-21T05:40:32;6.32;;;2.20;;
13252;SDS011;6693;54.370;10.132;2023-11-21T05:41:37;6.30;;;2.03;;
13252;SDS011;6693;54.370;10.132;2023-11-21T05:42:37;5.20;;;2.20;;
13252;SDS011;6693;54.370;10.132;2023-11-21T05:43:41;5.38;;;1.95;;
13252;SDS011;6693;54.370;10.132;2023-11-21T05:44:42;5.45;;;1.77;;
13252;SDS011;6693;54.370;10.132;2023-11-21T05:45:48;6.90;;;2.17;;
13252;SDS011;6693;54.370;10.132;2023-11-21T05:46:49;6.25;;;1.98;;
13252;SDS011;6693;54.370;10.132;2023-11-21T05:47:52;6.10;;;2.17;;
13252;SDS011;6693;54.370;10.132;2023-11-21T05:48:53;8.27;;;2.92;;
13252;SDS011;6693;54.370;10.132;2023-11-21T05:49:56;5.40;;;2.15;;
13252;SDS011;6693;54.370;10.132;2023-11-21T05:50:57;8.50;;;2.80;;
13252;SDS011;6693;54.370;10.132;2023-11-21T05:52:02;7.07;;;2.47;;
13252;SDS011;6693;54.370;10.132;2023-11-21T05:53:03;7.15;;;2.78;;
13252;SDS011;6693;54.370;10.132;2023-11-21T05:54:05;5.47;;;2.20;;
13252;SDS011;6693;54.370;10.132;2023-11-21T05:55:08;7.32;;;2.47;;
13252;SDS011;6693;54.370;10.132;2023-11-21T05:56:09;6.13;;;2.35;;
13252;SDS011;6693;54.370;10.132;2023-11-21T05:57:13;5.78;;;2.25;;
13252;SDS011;6693;54.370;10.132;2023-11-21T05:58:14;6.70;;;2.35;;
13252;SDS011;6693;54.370;10.132;2023-11-21T05:59:17;6.18;;;2.28;;
13252;SDS011;6693;54.370;10.132;2023-11-21T06:00:18;6.28;;;2.45;;
13252;SDS011;6693;54.370;10.132;2023-11-21T06:01:23;7.40;;;2.55;;
13252;SDS011;6693;54.370;10.132;2023-11-21T06:02:28;6.80;;;2.90;;
13252;SDS011;6693;54.370;10.132;2023-11-21T06:03:28;6.55;;;2.65;;
13252;SDS011;6693;54.370;10.132;2023-11-21T06:04:32;6.95;;;2.53;;
13252;SDS011;6693;54.370;10.132;2023-11-21T06:05:32;7.03;;;2.60;;
13252;SDS011;6693;54.370;10.132;2023-11-21T06:06:35;6.88;;;2.80;;
13252;SDS011;6693;54.370;10.132;2023-11-21T06:07:36;7.65;;;2.78;;
13252;SDS011;6693;54.370;10.132;2023-11-21T06:08:40;7.38;;;3.08;;
13252;SDS011;6693;54.370;10.132;2023-11-21T06:09:41;8.30;;;3.42;;
13252;SDS011;6693;54.370;10.132;2023-11-21T06:10:45;6.60;;;2.60;;
13252;SDS011;6693;54.370;10.132;2023-11-21T06:11:49;8.30;;;2.97;;
13252;SDS011;6693;54.370;10.132;2023-11-21T06:12:49;7.70;;;2.67;;
13252;SDS011;6693;54.370;10.132;2023-11-21T06:13:53;7.25;;;3.25;;
13252;SDS011;6693;54.370;10.132;2023-11-21T06:14:53;7.75;;;3.03;;
13252;SDS011;6693;54.370;10.132;2023-11-21T06:15:56;7.68;;;3.10;;